sensor_id;sensor_type;location;lat;lon;timestamp;P1;durP1;ratioP1;P2;durP2;ratioP2
32295;SDS011;18781;51.550;5.418;2023-11-19T00:02:18;10.70;;;6.28;;
32295;SDS011;18781;51.550;5.418;2023-11-19T00:04:44;8.77;;;5.97;;
32295;SDS011;18781;51.550;5.418;2023-11-19T00:07:09;12.35;;;7.05;;
32295;SDS011;18781;51.550;5.418;2023-11-19T00:09:37;14.88;;;6.03;;
32295;SDS011;18781;51.550;5.418;2023-11-19T00:12:06;13.15;;;6.50;;
32295;SDS011;18781;51.550;5.418;2023-11-19T00:16:58;12.15;;;6.18;;
32295;SDS011;18781;51.550;5.418;2023-11-19T00:19:24;15.13;;;6.03;;
32295;SDS011;18781;51.550;5.418;2023-11-19T00:21:49;14.35;;;6.50;;
32295;SDS011;18781;51.550;5.418;2023-11-19T00:24:15;16.73;;;5.80;;
32295;SDS011;18781;51.550;5.418;2023-11-19T00:26:42;10.75;;;5.63;;
32295;SDS011;18781;51.550;5.418;2023-11-19T00:29:08;15.15;;;5.40;;
32295;SDS011;18781;51.550;5.418;2023-11-19T00:31:33;11.05;;;5.75;;
32295;SDS011;18781;51.550;5.418;2023-11-19T00:33:59;12.80;;;5.18;;
32295;SDS011;18781;51.550;5.418;2023-11-19T00:36:26;7.55;;;4.47;;
32295;SDS011;18781;51.550;5.418;2023-11-19T00:38:52;9.55;;;4.50;;
32295;SDS011;18781;51.550;5.418;2023-11-19T00:41:18;14.63;;;4.45;;
32295;SDS011;18781;51.550;5.418;2023-11-19T00:43:44;20.10;;;4.88;;
32295;SDS011;18781;51.550;5.418;2023-11-19T00:46:09;19.58;;;4.68;;
32295;SDS011;18781;51.550;5.418;2023-11-19T00:48:39;12.63;;;4.47;;
32295;SDS011;18781;51.550;5.418;2023-11-19T00:51:05;14.68;;;4.13;;
32295;SDS011;18781;51.550;5.418;2023-11-19T00:53:30;17.92;;;4.00;;
32295;SDS011;18781;51.550;5.418;2023-11-19T00:55:57;14.05;;;4.13;;
32295;SDS011;18781;51.550;5.418;2023-11-19T00:58:23;14.88;;;3.55;;
32295;SDS011;18781;51.550;5.418;2023-11-19T01:00:48;13.60;;;3.97;;
32295;SDS011;18781;51.550;5.418;2023-11-19T01:03:14;11.25;;;3.80;;
32295;SDS011;18781;51.550;5.418;2023-11-19T01:05:41;16.40;;;3.80;;
32295;SDS011;18781;51.550;5.418;2023-11-19T01:08:06;18.50;;;4.00;;
32295;SDS011;18781;51.550;5.418;2023-11-19T01:10:33;10.57;;;3.70;;
32295;SDS011;18781;51.550;5.418;2023-11-19T01:12:59;13.60;;;3.40;;
32295;SDS011;18781;51.550;5.418;2023-11-19T01:15:24;12.18;;;3.40;;
32295;SDS011;18781;51.550;5.418;2023-11-19T01:17:50;20.50;;;4.38;;
32295;SDS011;18781;51.550;5.418;2023-11-19T01:20:16;14.07;;;3.80;;
32295;SDS011;18781;51.550;5.418;2023-11-19T01:22:42;21.02;;;3.80;;
32295;SDS011;18781;51.550;5.418;2023-11-19T01:25:08;15.73;;;3.88;;
32295;SDS011;18781;51.550;5.418;2023-11-19T01:27:34;14.63;;;4.05;;
32295;SDS011;18781;51.550;5.418;2023-11-19T01:30:01;20.10;;;3.70;;
32295;SDS011;18781;51.550;5.418;2023-11-19T01:32:31;18.73;;;4.15;;
32295;SDS011;18781;51.550;5.418;2023-11-19T01:34:56;18.42;;;4.32;;
32295;SDS011;18781;51.550;5.418;2023-11-19T01:37:23;19.23;;;3.75;;
32295;SDS011;18781;51.550;5.418;2023-11-19T01:39:48;13.05;;;3.40;;
32295;SDS011;18781;51.550;5.418;2023-11-19T01:42:14;24.42;;;4.63;;
32295;SDS011;18781;51.550;5.418;2023-11-19T01:44:40;19.83;;;4.45;;
32295;SDS011;18781;51.550;5.418;2023-11-19T01:47:06;22.50;;;4.15;;
32295;SDS011;18781;51.550;5.418;2023-11-19T01:49:33;20.25;;;4.70;;
32295;SDS011;18781;51.550;5.418;2023-11-19T01:51:59;24.00;;;4.72;;
32295;SDS011;18781;51.550;5.418;2023-11-19T01:54:25;20.08;;;4.03;;
32295;SDS011;18781;51.550;5.418;2023-11-19T01:56:53;21.50;;;4.03;;
32295;SDS011;18781;51.550;5.418;2023-11-19T01:59:22;26.85;;;4.85;;
32295;SDS011;18781;51.550;5.418;2023-11-19T02:01:51;25.15;;;4.95;;
32295;SDS011;18781;51.550;5.418;2023-11-19T02:04:20;28.42;;;4.43;;
32295;SDS011;18781;51.550;5.418;2023-11-19T02:06:46;22.58;;;4.97;;
32295;SDS011;18781;51.550;5.418;2023-11-19T02:09:14;28.10;;;4.85;;
32295;SDS011;18781;51.550;5.418;2023-11-19T02:11:44;25.38;;;4.88;;
32295;SDS011;18781;51.550;5.418;2023-11-19T02:14:10;26.25;;;5.00;;
32295;SDS011;18781;51.550;5.418;2023-11-19T02:16:36;26.00;;;4.85;;
32295;SDS011;18781;51.550;5.418;2023-11-19T02:19:01;23.50;;;5.18;;
32295;SDS011;18781;51.550;5.418;2023-11-19T02:21:27;25.38;;;4.43;;
32295;SDS011;18781;51.550;5.418;2023-11-19T02:23:53;34.50;;;5.80;;
32295;SDS011;18781;51.550;5.418;2023-11-19T02:28:53;26.83;;;4.95;;
32295;SDS011;18781;51.550;5.418;2023-11-19T02:31:18;34.92;;;4.88;;
32295;SDS011;18781;51.550;5.418;2023-11-19T02:33:45;30.00;;;5.05;;
32295;SDS011;18781;51.550;5.418;2023-11-19T02:36:10;31.77;;;6.32;;
32295;SDS011;18781;51.550;5.418;2023-11-19T02:38:36;26.42;;;5.75;;
32295;SDS011;18781;51.550;5.418;2023-11-19T02:41:06;32.00;;;5.97;;
32295;SDS011;18781;51.550;5.418;2023-11-19T02:43:32;32.17;;;6.13;;
32295;SDS011;18781;51.550;5.418;2023-11-19T02:46:04;26.80;;;6.30;;
32295;SDS011;18781;51.550;5.418;2023-11-19T02:48:34;28.48;;;5.60;;
32295;SDS011;18781;51.550;5.418;2023-11-19T02:53:29;34.25;;;6.05;;
32295;SDS011;18781;51.550;5.418;2023-11-19T02:55:55;31.52;;;5.65;;
32295;SDS011;18781;51.550;5.418;2023-11-19T02:58:27;34.42;;;5.60;;
32295;SDS011;18781;51.550;5.418;2023-11-19T03:00:54;27.10;;;5.18;;
32295;SDS011;18781;51.550;5.418;2023-11-19T03:03:26;38.80;;;6.65;;
32295;SDS011;18781;51.550;5.418;2023-11-19T03:06:04;33.67;;;6.03;;
32295;SDS011;18781;51.550;5.418;2023-11-19T03:08:31;36.72;;;5.78;;
32295;SDS011;18781;51.550;5.418;2023-11-19T03:10:57;35.72;;;5.95;;
32295;SDS011;18781;51.550;5.418;2023-11-19T03:13:24;34.58;;;7.05;;
32295;SDS011;18781;51.550;5.418;2023-11-19T03:15:49;40.15;;;6.47;;
32295;SDS011;18781;51.550;5.418;2023-11-19T03:18:16;51.47;;;6.85;;
32295;SDS011;18781;51.550;5.418;2023-11-19T03:20:42;36.15;;;6.15;;
32295;SDS011;18781;51.550;5.418;2023-11-19T03:23:07;36.83;;;6.10;;
32295;SDS011;18781;51.550;5.418;2023-11-19T03:25:33;47.40;;;6.30;;
32295;SDS011;18781;51.550;5.418;2023-11-19T03:27:59;47.67;;;6.35;;
32295;SDS011;18781;51.550;5.418;2023-11-19T03:30:28;33.08;;;5.93;;
32295;SDS011;18781;51.550;5.418;2023-11-19T03:32:55;37.47;;;6.05;;
32295;SDS011;18781;51.550;5.418;2023-11-19T03:35:21;38.75;;;6.25;;
32295;SDS011;18781;51.550;5.418;2023-11-19T03:37:47;37.20;;;5.65;;
32295;SDS011;18781;51.550;5.418;2023-11-19T03:40:13;38.13;;;6.18;;
32295;SDS011;18781;51.550;5.418;2023-11-19T03:42:39;43.97;;;6.47;;
32295;SDS011;18781;51.550;5.418;2023-11-19T03:45:06;40.25;;;6.13;;
32295;SDS011;18781;51.550;5.418;2023-11-19T03:47:33;49.65;;;6.88;;
32295;SDS011;18781;51.550;5.418;2023-11-19T03:49:59;43.75;;;6.47;;
32295;SDS011;18781;51.550;5.418;2023-11-19T03:52:25;40.88;;;5.88;;
32295;SDS011;18781;51.550;5.418;2023-11-19T03:54:52;38.28;;;5.90;;
32295;SDS011;18781;51.550;5.418;2023-11-19T03:57:18;42.22;;;6.50;;
32295;SDS011;18781;51.550;5.418;2023-11-19T03:59:43;57.92;;;7.03;;
32295;SDS011;18781;51.550;5.418;2023-11-19T04:02:09;48.58;;;7.15;;
32295;SDS011;18781;51.550;5.418;2023-11-19T04:04:35;62.97;;;7.45;;
32295;SDS011;18781;51.550;5.418;2023-11-19T04:07:01;51.08;;;7.65;;
32295;SDS011;18781;51.550;5.418;2023-11-19T04:09:28;55.58;;;7.55;;
32295;SDS011;18781;51.550;5.418;2023-11-19T04:11:54;46.30;;;7.20;;
32295;SDS011;18781;51.550;5.418;2023-11-19T04:14:20;47.28;;;6.32;;
32295;SDS011;18781;51.550;5.418;2023-11-19T04:16:45;58.20;;;7.80;;
32295;SDS011;18781;51.550;5.418;2023-11-19T04:19:11;48.78;;;7.20;;
32295;SDS011;18781;51.550;5.418;2023-11-19T04:21:39;56.25;;;7.80;;
32295;SDS011;18781;51.550;5.418;2023-11-19T04:24:06;44.90;;;6.70;;
32295;SDS011;18781;51.550;5.418;2023-11-19T04:26:32;52.92;;;7.18;;
32295;SDS011;18781;51.550;5.418;2023-11-19T04:28:57;56.42;;;7.95;;
32295;SDS011;18781;51.550;5.418;2023-11-19T04:31:23;56.88;;;8.25;;
32295;SDS011;18781;51.550;5.418;2023-11-19T04:33:56;46.65;;;6.68;;
32295;SDS011;18781;51.550;5.418;2023-11-19T04:36:22;59.53;;;7.85;;
32295;SDS011;18781;51.550;5.418;2023-11-19T04:38:49;46.63;;;6.93;;
32295;SDS011;18781;51.550;5.418;2023-11-19T04:41:15;59.05;;;8.10;;
32295;SDS011;18781;51.550;5.418;2023-11-19T04:43:41;50.85;;;7.90;;
32295;SDS011;18781;51.550;5.418;2023-11-19T04:46:06;47.85;;;7.57;;
32295;SDS011;18781;51.550;5.418;2023-11-19T04:48:34;48.03;;;7.47;;
32295;SDS011;18781;51.550;5.418;2023-11-19T04:50:59;49.65;;;7.72;;
32295;SDS011;18781;51.550;5.418;2023-11-19T04:53:25;53.33;;;8.38;;
32295;SDS011;18781;51.550;5.418;2023-11-19T04:55:51;50.20;;;6.93;;
32295;SDS011;18781;51.550;5.418;2023-11-19T04:58:17;48.40;;;8.10;;
32295;SDS011;18781;51.550;5.418;2023-11-19T05:00:42;50.08;;;7.93;;
32295;SDS011;18781;51.550;5.418;2023-11-19T05:03:08;49.25;;;7.88;;
32295;SDS011;18781;51.550;5.418;2023-11-19T05:05:33;53.10;;;8.00;;
32295;SDS011;18781;51.550;5.418;2023-11-19T05:07:59;52.65;;;7.40;;
32295;SDS011;18781;51.550;5.418;2023-11-19T05:10:24;48.47;;;7.20;;
32295;SDS011;18781;51.550;5.418;2023-11-19T05:12:50;52.10;;;7.05;;
32295;SDS011;18781;51.550;5.418;2023-11-19T05:15:16;49.58;;;6.93;;
32295;SDS011;18781;51.550;5.418;2023-11-19T05:17:42;48.05;;;7.35;;
32295;SDS011;18781;51.550;5.418;2023-11-19T05:20:08;54.83;;;8.38;;
32295;SDS011;18781;51.550;5.418;2023-11-19T05:22:39;46.63;;;7.07;;
32295;SDS011;18781;51.550;5.418;2023-11-19T05:25:05;41.38;;;6.45;;
32295;SDS011;18781;51.550;5.418;2023-11-19T05:27:31;47.28;;;6.95;;
32295;SDS011;18781;51.550;5.418;2023-11-19T05:29:57;48.08;;;6.97;;
32295;SDS011;18781;51.550;5.418;2023-11-19T05:32:22;43.42;;;7.35;;
32295;SDS011;18781;51.550;5.418;2023-11-19T05:34:48;44.17;;;6.57;;
32295;SDS011;18781;51.550;5.418;2023-11-19T05:37:14;62.08;;;7.50;;
32295;SDS011;18781;51.550;5.418;2023-11-19T05:39:39;50.30;;;6.88;;
32295;SDS011;18781;51.550;5.418;2023-11-19T05:42:05;57.67;;;7.75;;
32295;SDS011;18781;51.550;5.418;2023-11-19T05:44:30;48.92;;;7.43;;
32295;SDS011;18781;51.550;5.418;2023-11-19T05:46:56;53.65;;;7.05;;
32295;SDS011;18781;51.550;5.418;2023-11-19T05:49:21;51.00;;;7.22;;
32295;SDS011;18781;51.550;5.418;2023-11-19T05:51:47;56.55;;;7.70;;
32295;SDS011;18781;51.550;5.418;2023-11-19T05:54:13;49.03;;;7.28;;
32295;SDS011;18781;51.550;5.418;2023-11-19T05:56:38;61.15;;;8.02;;
32295;SDS011;18781;51.550;5.418;2023-11-19T05:59:04;55.42;;;7.35;;
32295;SDS011;18781;51.550;5.418;2023-11-19T06:01:34;54.47;;;7.72;;
32295;SDS011;18781;51.550;5.418;2023-11-19T06:04:00;52.42;;;8.07;;
32295;SDS011;18781;51.550;5.418;2023-11-19T06:06:26;52.33;;;7.20;;
32295;SDS011;18781;51.550;5.418;2023-11-19T06:08:52;57.50;;;7.30;;
32295;SDS011;18781;51.550;5.418;2023-11-19T06:11:18;50.08;;;7.45;;
32295;SDS011;18781;51.550;5.418;2023-11-19T06:13:45;47.92;;;7.22;;
32295;SDS011;18781;51.550;5.418;2023-11-19T06:16:12;58.90;;;7.90;;
32295;SDS011;18781;51.550;5.418;2023-11-19T06:18:38;49.17;;;6.82;;
32295;SDS011;18781;51.550;5.418;2023-11-19T06:21:04;52.67;;;7.07;;
32295;SDS011;18781;51.550;5.418;2023-11-19T06:23:30;51.63;;;7.53;;
32295;SDS011;18781;51.550;5.418;2023-11-19T06:25:55;47.92;;;7.05;;
32295;SDS011;18781;51.550;5.418;2023-11-19T06:28:21;55.83;;;7.22;;
32295;SDS011;18781;51.550;5.418;2023-11-19T06:30:46;66.57;;;8.20;;
32295;SDS011;18781;51.550;5.418;2023-11-19T06:33:15;68.00;;;8.20;;
32295;SDS011;18781;51.550;5.418;2023-11-19T06:35:40;55.33;;;7.20;;
32295;SDS011;18781;51.550;5.418;2023-11-19T06:38:06;56.83;;;8.32;;
32295;SDS011;18781;51.550;5.418;2023-11-19T06:40:35;53.83;;;6.85;;
32295;SDS011;18781;51.550;5.418;2023-11-19T06:43:00;61.15;;;8.68;;
32295;SDS011;18781;51.550;5.418;2023-11-19T06:45:28;58.03;;;7.28;;
32295;SDS011;18781;51.550;5.418;2023-11-19T06:47:54;57.35;;;7.20;;
32295;SDS011;18781;51.550;5.418;2023-11-19T06:50:20;46.13;;;7.70;;
32295;SDS011;18781;51.550;5.418;2023-11-19T06:52:45;51.60;;;7.07;;
32295;SDS011;18781;51.550;5.418;2023-11-19T06:55:11;55.40;;;7.35;;
32295;SDS011;18781;51.550;5.418;2023-11-19T06:57:37;49.00;;;7.20;;
32295;SDS011;18781;51.550;5.418;2023-11-19T07:00:02;58.38;;;7.75;;
32295;SDS011;18781;51.550;5.418;2023-11-19T07:02:30;52.50;;;7.07;;
32295;SDS011;18781;51.550;5.418;2023-11-19T07:04:56;58.67;;;7.80;;
32295;SDS011;18781;51.550;5.418;2023-11-19T07:07:21;61.60;;;7.75;;
32295;SDS011;18781;51.550;5.418;2023-11-19T07:09:47;49.15;;;7.28;;
32295;SDS011;18781;51.550;5.418;2023-11-19T07:12:13;55.03;;;7.47;;
32295;SDS011;18781;51.550;5.418;2023-11-19T07:14:39;55.50;;;7.40;;
32295;SDS011;18781;51.550;5.418;2023-11-19T07:17:05;51.00;;;7.15;;
32295;SDS011;18781;51.550;5.418;2023-11-19T07:19:31;58.05;;;7.63;;
32295;SDS011;18781;51.550;5.418;2023-11-19T07:21:56;62.90;;;7.60;;
32295;SDS011;18781;51.550;5.418;2023-11-19T07:24:22;52.42;;;7.60;;
32295;SDS011;18781;51.550;5.418;2023-11-19T07:26:48;46.88;;;6.82;;
32295;SDS011;18781;51.550;5.418;2023-11-19T07:29:14;61.25;;;7.95;;
32295;SDS011;18781;51.550;5.418;2023-11-19T07:31:41;60.45;;;8.18;;
32295;SDS011;18781;51.550;5.418;2023-11-19T07:34:09;53.25;;;7.35;;
32295;SDS011;18781;51.550;5.418;2023-11-19T07:36:36;56.10;;;8.20;;
32295;SDS011;18781;51.550;5.418;2023-11-19T07:39:03;65.30;;;7.25;;
32295;SDS011;18781;51.550;5.418;2023-11-19T07:41:29;55.13;;;7.50;;
32295;SDS011;18781;51.550;5.418;2023-11-19T07:43:55;46.67;;;6.47;;
32295;SDS011;18781;51.550;5.418;2023-11-19T07:46:21;58.08;;;7.60;;
32295;SDS011;18781;51.550;5.418;2023-11-19T07:48:47;53.67;;;7.03;;
32295;SDS011;18781;51.550;5.418;2023-11-19T07:51:13;59.65;;;7.55;;
32295;SDS011;18781;51.550;5.418;2023-11-19T07:53:39;51.40;;;7.05;;
32295;SDS011;18781;51.550;5.418;2023-11-19T07:56:05;59.85;;;7.95;;
32295;SDS011;18781;51.550;5.418;2023-11-19T07:58:32;49.10;;;7.30;;
32295;SDS011;18781;51.550;5.418;2023-11-19T08:00:57;57.95;;;8.90;;
32295;SDS011;18781;51.550;5.418;2023-11-19T08:03:23;51.75;;;8.27;;
32295;SDS011;18781;51.550;5.418;2023-11-19T08:05:49;53.58;;;7.47;;
32295;SDS011;18781;51.550;5.418;2023-11-19T08:08:15;48.45;;;7.47;;
32295;SDS011;18781;51.550;5.418;2023-11-19T08:10:40;52.72;;;8.48;;
32295;SDS011;18781;51.550;5.418;2023-11-19T08:13:06;52.38;;;7.65;;
32295;SDS011;18781;51.550;5.418;2023-11-19T08:15:32;59.47;;;7.65;;
32295;SDS011;18781;51.550;5.418;2023-11-19T08:17:58;59.17;;;8.20;;
32295;SDS011;18781;51.550;5.418;2023-11-19T08:20:24;59.28;;;8.63;;
32295;SDS011;18781;51.550;5.418;2023-11-19T08:22:49;54.85;;;8.50;;
32295;SDS011;18781;51.550;5.418;2023-11-19T08:25:15;55.55;;;7.10;;
32295;SDS011;18781;51.550;5.418;2023-11-19T08:27:41;51.83;;;8.05;;
32295;SDS011;18781;51.550;5.418;2023-11-19T08:30:08;51.35;;;8.38;;
32295;SDS011;18781;51.550;5.418;2023-11-19T08:32:34;57.35;;;7.95;;
32295;SDS011;18781;51.550;5.418;2023-11-19T08:35:00;46.00;;;6.40;;
32295;SDS011;18781;51.550;5.418;2023-11-19T08:37:26;52.30;;;7.78;;
32295;SDS011;18781;51.550;5.418;2023-11-19T08:39:52;52.47;;;7.72;;
32295;SDS011;18781;51.550;5.418;2023-11-19T08:42:18;54.60;;;6.80;;
32295;SDS011;18781;51.550;5.418;2023-11-19T08:44:43;47.55;;;7.18;;
32295;SDS011;18781;51.550;5.418;2023-11-19T08:47:15;53.30;;;7.70;;
32295;SDS011;18781;51.550;5.418;2023-11-19T08:49:42;46.85;;;7.05;;
32295;SDS011;18781;51.550;5.418;2023-11-19T08:52:08;52.83;;;7.85;;
32295;SDS011;18781;51.550;5.418;2023-11-19T08:54:35;64.50;;;7.70;;
32295;SDS011;18781;51.550;5.418;2023-11-19T08:57:01;60.65;;;9.00;;
32295;SDS011;18781;51.550;5.418;2023-11-19T08:59:29;55.92;;;8.38;;
32295;SDS011;18781;51.550;5.418;2023-11-19T09:01:55;57.45;;;8.27;;
32295;SDS011;18781;51.550;5.418;2023-11-19T09:04:20;55.35;;;7.85;;
32295;SDS011;18781;51.550;5.418;2023-11-19T09:06:48;61.50;;;8.15;;
32295;SDS011;18781;51.550;5.418;2023-11-19T09:09:14;60.38;;;7.45;;
32295;SDS011;18781;51.550;5.418;2023-11-19T09:11:39;49.40;;;7.65;;
32295;SDS011;18781;51.550;5.418;2023-11-19T09:14:05;48.80;;;7.43;;
32295;SDS011;18781;51.550;5.418;2023-11-19T09:16:31;63.65;;;9.30;;
32295;SDS011;18781;51.550;5.418;2023-11-19T09:18:57;58.47;;;7.38;;
32295;SDS011;18781;51.550;5.418;2023-11-19T09:21:24;50.45;;;7.75;;
32295;SDS011;18781;51.550;5.418;2023-11-19T09:23:54;62.15;;;7.95;;
32295;SDS011;18781;51.550;5.418;2023-11-19T09:26:20;50.40;;;7.30;;
32295;SDS011;18781;51.550;5.418;2023-11-19T09:28:46;56.50;;;8.02;;
32295;SDS011;18781;51.550;5.418;2023-11-19T09:31:15;55.63;;;7.78;;
32295;SDS011;18781;51.550;5.418;2023-11-19T09:33:41;55.05;;;7.75;;
32295;SDS011;18781;51.550;5.418;2023-11-19T09:36:06;62.60;;;8.77;;
32295;SDS011;18781;51.550;5.418;2023-11-19T09:38:32;56.95;;;7.82;;
32295;SDS011;18781;51.550;5.418;2023-11-19T09:40:58;60.20;;;8.65;;
32295;SDS011;18781;51.550;5.418;2023-11-19T09:43:28;56.60;;;8.10;;
32295;SDS011;18781;51.550;5.418;2023-11-19T09:45:54;55.88;;;7.93;;
32295;SDS011;18781;51.550;5.418;2023-11-19T09:48:21;59.70;;;9.00;;
32295;SDS011;18781;51.550;5.418;2023-11-19T09:50:49;58.05;;;7.47;;
32295;SDS011;18781;51.550;5.418;2023-11-19T09:53:16;58.35;;;8.70;;
32295;SDS011;18781;51.550;5.418;2023-11-19T09:55:42;68.65;;;9.50;;
32295;SDS011;18781;51.550;5.418;2023-11-19T09:58:08;55.25;;;7.00;;
32295;SDS011;18781;51.550;5.418;2023-11-19T10:00:36;58.17;;;7.90;;
32295;SDS011;18781;51.550;5.418;2023-11-19T10:03:02;59.42;;;8.05;;
32295;SDS011;18781;51.550;5.418;2023-11-19T10:05:32;55.38;;;7.38;;
32295;SDS011;18781;51.550;5.418;2023-11-19T10:07:57;50.38;;;7.47;;
32295;SDS011;18781;51.550;5.418;2023-11-19T10:10:23;55.92;;;7.97;;
32295;SDS011;18781;51.550;5.418;2023-11-19T10:12:52;55.80;;;7.60;;
32295;SDS011;18781;51.550;5.418;2023-11-19T10:15:21;58.33;;;7.80;;
32295;SDS011;18781;51.550;5.418;2023-11-19T10:17:49;58.42;;;8.43;;
32295;SDS011;18781;51.550;5.418;2023-11-19T10:20:14;55.63;;;7.90;;
32295;SDS011;18781;51.550;5.418;2023-11-19T10:22:40;63.22;;;7.55;;
32295;SDS011;18781;51.550;5.418;2023-11-19T10:25:21;66.68;;;8.25;;
32295;SDS011;18781;51.550;5.418;2023-11-19T10:27:54;46.05;;;8.07;;
32295;SDS011;18781;51.550;5.418;2023-11-19T10:30:26;50.80;;;7.72;;
32295;SDS011;18781;51.550;5.418;2023-11-19T10:33:02;50.28;;;6.90;;
32295;SDS011;18781;51.550;5.418;2023-11-19T10:35:35;51.65;;;7.60;;
32295;SDS011;18781;51.550;5.418;2023-11-19T10:38:14;46.33;;;7.05;;
32295;SDS011;18781;51.550;5.418;2023-11-19T10:40:40;46.10;;;7.05;;
32295;SDS011;18781;51.550;5.418;2023-11-19T10:43:06;66.20;;;8.43;;
32295;SDS011;18781;51.550;5.418;2023-11-19T10:45:33;55.83;;;8.07;;
32295;SDS011;18781;51.550;5.418;2023-11-19T10:48:03;53.83;;;7.95;;
32295;SDS011;18781;51.550;5.418;2023-11-19T10:55:28;51.60;;;7.55;;
32295;SDS011;18781;51.550;5.418;2023-11-19T10:58:02;55.67;;;8.05;;
32295;SDS011;18781;51.550;5.418;2023-11-19T11:00:33;46.92;;;7.40;;
32295;SDS011;18781;51.550;5.418;2023-11-19T11:03:02;52.75;;;7.65;;
32295;SDS011;18781;51.550;5.418;2023-11-19T11:05:35;43.88;;;7.22;;
32295;SDS011;18781;51.550;5.418;2023-11-19T11:08:03;46.05;;;6.80;;
32295;SDS011;18781;51.550;5.418;2023-11-19T11:10:31;46.33;;;7.55;;
32295;SDS011;18781;51.550;5.418;2023-11-19T11:13:02;46.03;;;7.38;;
32295;SDS011;18781;51.550;5.418;2023-11-19T11:15:29;49.10;;;7.10;;
32295;SDS011;18781;51.550;5.418;2023-11-19T11:17:57;46.80;;;6.95;;
32295;SDS011;18781;51.550;5.418;2023-11-19T11:20:31;56.47;;;6.72;;
32295;SDS011;18781;51.550;5.418;2023-11-19T11:25:36;46.33;;;7.43;;
32295;SDS011;18781;51.550;5.418;2023-11-19T11:31:03;39.88;;;6.57;;
32295;SDS011;18781;51.550;5.418;2023-11-19T11:33:56;53.95;;;7.18;;
32295;SDS011;18781;51.550;5.418;2023-11-19T11:36:24;42.28;;;6.57;;
32295;SDS011;18781;51.550;5.418;2023-11-19T11:38:51;45.50;;;6.90;;
32295;SDS011;18781;51.550;5.418;2023-11-19T11:41:18;42.78;;;6.53;;
32295;SDS011;18781;51.550;5.418;2023-11-19T11:43:49;42.78;;;6.15;;
32295;SDS011;18781;51.550;5.418;2023-11-19T11:49:05;39.40;;;5.95;;
32295;SDS011;18781;51.550;5.418;2023-11-19T11:54:10;38.83;;;6.93;;
32295;SDS011;18781;51.550;5.418;2023-11-19T11:56:36;34.25;;;5.88;;
32295;SDS011;18781;51.550;5.418;2023-11-19T11:59:03;36.10;;;4.85;;
32295;SDS011;18781;51.550;5.418;2023-11-19T12:01:32;33.58;;;5.90;;
32295;SDS011;18781;51.550;5.418;2023-11-19T12:03:58;50.85;;;7.80;;
32295;SDS011;18781;51.550;5.418;2023-11-19T12:06:24;38.90;;;5.40;;
32295;SDS011;18781;51.550;5.418;2023-11-19T12:08:51;41.20;;;6.88;;
32295;SDS011;18781;51.550;5.418;2023-11-19T12:11:17;33.60;;;6.50;;
32295;SDS011;18781;51.550;5.418;2023-11-19T12:13:52;33.70;;;6.03;;
32295;SDS011;18781;51.550;5.418;2023-11-19T12:16:21;35.95;;;6.10;;
32295;SDS011;18781;51.550;5.418;2023-11-19T12:18:47;37.65;;;6.45;;
32295;SDS011;18781;51.550;5.418;2023-11-19T12:21:26;37.25;;;6.05;;
32295;SDS011;18781;51.550;5.418;2023-11-19T12:23:57;42.40;;;6.95;;
32295;SDS011;18781;51.550;5.418;2023-11-19T12:26:34;42.10;;;6.75;;
32295;SDS011;18781;51.550;5.418;2023-11-19T12:29:01;40.25;;;6.63;;
32295;SDS011;18781;51.550;5.418;2023-11-19T12:31:29;43.63;;;6.70;;
32295;SDS011;18781;51.550;5.418;2023-11-19T12:33:55;37.08;;;6.30;;
32295;SDS011;18781;51.550;5.418;2023-11-19T12:36:21;50.33;;;6.45;;
32295;SDS011;18781;51.550;5.418;2023-11-19T12:38:46;45.80;;;6.50;;
32295;SDS011;18781;51.550;5.418;2023-11-19T12:41:12;42.20;;;5.50;;
32295;SDS011;18781;51.550;5.418;2023-11-19T12:43:42;39.58;;;6.68;;
32295;SDS011;18781;51.550;5.418;2023-11-19T12:48:47;38.55;;;6.55;;
32295;SDS011;18781;51.550;5.418;2023-11-19T12:51:13;45.08;;;6.43;;
32295;SDS011;18781;51.550;5.418;2023-11-19T12:53:51;45.45;;;6.45;;
32295;SDS011;18781;51.550;5.418;2023-11-19T12:56:20;44.80;;;6.07;;
32295;SDS011;18781;51.550;5.418;2023-11-19T12:58:47;39.80;;;6.30;;
32295;SDS011;18781;51.550;5.418;2023-11-19T13:01:17;55.65;;;6.75;;
32295;SDS011;18781;51.550;5.418;2023-11-19T13:03:44;40.95;;;6.80;;
32295;SDS011;18781;51.550;5.418;2023-11-19T13:06:11;46.95;;;6.93;;
32295;SDS011;18781;51.550;5.418;2023-11-19T13:08:44;40.97;;;5.72;;
32295;SDS011;18781;51.550;5.418;2023-11-19T13:11:11;40.40;;;6.45;;
32295;SDS011;18781;51.550;5.418;2023-11-19T13:13:53;49.90;;;6.32;;
32295;SDS011;18781;51.550;5.418;2023-11-19T13:16:26;46.13;;;6.18;;
32295;SDS011;18781;51.550;5.418;2023-11-19T13:18:53;38.40;;;5.72;;
32295;SDS011;18781;51.550;5.418;2023-11-19T13:21:19;39.85;;;6.38;;
32295;SDS011;18781;51.550;5.418;2023-11-19T13:23:45;33.40;;;5.95;;
32295;SDS011;18781;51.550;5.418;2023-11-19T13:26:11;42.60;;;6.10;;
32295;SDS011;18781;51.550;5.418;2023-11-19T13:28:37;36.35;;;6.45;;
32295;SDS011;18781;51.550;5.418;2023-11-19T13:31:03;32.85;;;5.03;;
32295;SDS011;18781;51.550;5.418;2023-11-19T13:33:29;34.00;;;5.38;;
32295;SDS011;18781;51.550;5.418;2023-11-19T13:35:55;32.38;;;5.68;;
32295;SDS011;18781;51.550;5.418;2023-11-19T13:38:21;39.45;;;6.10;;
32295;SDS011;18781;51.550;5.418;2023-11-19T13:40:48;39.25;;;5.80;;
32295;SDS011;18781;51.550;5.418;2023-11-19T13:43:15;29.33;;;5.38;;
32295;SDS011;18781;51.550;5.418;2023-11-19T13:45:41;31.10;;;4.82;;
32295;SDS011;18781;51.550;5.418;2023-11-19T13:48:06;38.95;;;6.07;;
32295;SDS011;18781;51.550;5.418;2023-11-19T13:50:32;30.98;;;5.18;;
32295;SDS011;18781;51.550;5.418;2023-11-19T13:52:59;32.00;;;5.22;;
32295;SDS011;18781;51.550;5.418;2023-11-19T13:55:24;43.70;;;6.15;;
32295;SDS011;18781;51.550;5.418;2023-11-19T13:57:50;42.53;;;5.43;;
32295;SDS011;18781;51.550;5.418;2023-11-19T14:00:16;36.83;;;5.65;;
32295;SDS011;18781;51.550;5.418;2023-11-19T14:02:43;30.42;;;4.82;;
32295;SDS011;18781;51.550;5.418;2023-11-19T14:05:13;31.45;;;4.95;;
32295;SDS011;18781;51.550;5.418;2023-11-19T14:07:40;38.40;;;5.65;;
32295;SDS011;18781;51.550;5.418;2023-11-19T14:10:07;34.15;;;5.40;;
32295;SDS011;18781;51.550;5.418;2023-11-19T14:12:39;33.88;;;4.93;;
32295;SDS011;18781;51.550;5.418;2023-11-19T14:15:08;36.15;;;6.15;;
32295;SDS011;18781;51.550;5.418;2023-11-19T14:17:38;35.55;;;5.72;;
32295;SDS011;18781;51.550;5.418;2023-11-19T14:20:04;37.90;;;5.68;;
32295;SDS011;18781;51.550;5.418;2023-11-19T14:22:38;32.85;;;5.15;;
32295;SDS011;18781;51.550;5.418;2023-11-19T14:25:05;34.72;;;5.60;;
32295;SDS011;18781;51.550;5.418;2023-11-19T14:27:34;35.22;;;5.65;;
32295;SDS011;18781;51.550;5.418;2023-11-19T14:30:07;33.88;;;5.65;;
32295;SDS011;18781;51.550;5.418;2023-11-19T14:32:36;32.83;;;5.38;;
32295;SDS011;18781;51.550;5.418;2023-11-19T14:35:03;35.83;;;5.47;;
32295;SDS011;18781;51.550;5.418;2023-11-19T14:37:30;32.95;;;5.57;;
32295;SDS011;18781;51.550;5.418;2023-11-19T14:39:58;31.27;;;4.95;;
32295;SDS011;18781;51.550;5.418;2023-11-19T14:42:24;25.95;;;5.30;;
32295;SDS011;18781;51.550;5.418;2023-11-19T14:44:53;25.27;;;4.55;;
32295;SDS011;18781;51.550;5.418;2023-11-19T14:47:20;35.60;;;5.68;;
32295;SDS011;18781;51.550;5.418;2023-11-19T14:49:46;34.00;;;5.07;;
32295;SDS011;18781;51.550;5.418;2023-11-19T14:52:12;26.88;;;5.13;;
32295;SDS011;18781;51.550;5.418;2023-11-19T14:54:37;30.25;;;5.55;;
32295;SDS011;18781;51.550;5.418;2023-11-19T14:57:03;30.33;;;5.80;;
32295;SDS011;18781;51.550;5.418;2023-11-19T14:59:29;30.30;;;5.03;;
32295;SDS011;18781;51.550;5.418;2023-11-19T15:01:55;37.03;;;6.05;;